createdAt,value
2023-04-24T00:00:33.748Z,9.50
2023-04-24T00:03:01.170Z,9.50
2023-04-24T00:05:28.763Z,9.40
2023-04-24T00:07:56.408Z,9.40
2023-04-24T00:10:23.619Z,9.40
2023-04-24T00:12:51.051Z,9.40
2023-04-24T00:15:18.317Z,9.40
2023-04-24T00:17:45.846Z,9.40
2023-04-24T00:20:13.143Z,9.40
2023-04-24T00:22:40.972Z,9.40
2023-04-24T00:25:08.535Z,9.40
2023-04-24T00:27:38.078Z,9.50
2023-04-24T00:30:05.815Z,9.50
2023-04-24T00:32:33.177Z,9.50
2023-04-24T00:35:00.485Z,9.40
2023-04-24T00:37:27.805Z,9.50
2023-04-24T00:39:55.120Z,9.50
2023-04-24T00:42:22.303Z,9.50
2023-04-24T00:44:49.370Z,9.50
2023-04-24T00:47:16.732Z,9.50
2023-04-24T00:49:44.213Z,9.50
2023-04-24T00:52:13.444Z,9.50
2023-04-24T00:54:40.736Z,9.50
2023-04-24T00:57:08.114Z,9.50
2023-04-24T00:59:35.466Z,9.50
2023-04-24T01:02:02.795Z,9.50
2023-04-24T01:04:30.280Z,9.50
2023-04-24T01:06:57.882Z,9.50
2023-04-24T01:09:25.792Z,9.40
2023-04-24T01:11:53.514Z,9.50
2023-04-24T01:14:21.177Z,9.60
2023-04-24T01:16:48.512Z,9.60
2023-04-24T01:19:16.097Z,9.50
2023-04-24T01:21:44.321Z,9.60
2023-04-24T01:24:11.729Z,9.60
2023-04-24T01:26:39.139Z,9.60
2023-04-24T01:29:06.581Z,9.60
2023-04-24T01:31:34.377Z,9.60
2023-04-24T01:34:02.053Z,9.60
2023-04-24T01:36:29.786Z,9.50
2023-04-24T01:38:57.189Z,9.50
2023-04-24T01:41:24.647Z,9.50
2023-04-24T01:43:52.083Z,9.50
2023-04-24T01:46:19.740Z,9.50
2023-04-24T01:48:47.068Z,9.40
2023-04-24T01:51:14.382Z,9.40
2023-04-24T01:53:41.775Z,9.40
2023-04-24T01:56:09.644Z,9.30
2023-04-24T01:58:37.133Z,9.30
2023-04-24T02:01:04.663Z,9.20
2023-04-24T02:03:32.117Z,9.30
2023-04-24T02:05:59.554Z,9.30
2023-04-24T02:08:26.853Z,9.30
2023-04-24T02:10:54.114Z,9.20
2023-04-24T02:13:21.445Z,9.30
2023-04-24T02:15:48.744Z,9.20
2023-04-24T02:18:16.694Z,9.30
2023-04-24T02:20:43.995Z,9.30
2023-04-24T02:23:11.370Z,9.30
2023-04-24T02:25:38.652Z,9.20
2023-04-24T02:28:06.058Z,9.20
2023-04-24T02:30:33.328Z,9.20
2023-04-24T02:33:00.836Z,9.20
2023-04-24T02:35:28.136Z,9.30
2023-04-24T02:37:55.460Z,9.30
2023-04-24T02:40:22.679Z,9.30
2023-04-24T02:42:49.928Z,9.30
2023-04-24T02:45:17.220Z,9.30
2023-04-24T02:47:44.634Z,9.30
2023-04-24T02:50:11.923Z,9.20
2023-04-24T02:52:39.266Z,9.20
2023-04-24T02:55:06.969Z,9.20
2023-04-24T02:57:34.469Z,9.10
2023-04-24T03:00:01.863Z,9.10
2023-04-24T03:02:29.491Z,9.10
2023-04-24T03:04:58.068Z,9.10
2023-04-24T03:07:25.572Z,9.10
2023-04-24T03:09:52.885Z,9.00
2023-04-24T03:12:20.167Z,9.00
2023-04-24T03:14:47.438Z,9.00
2023-04-24T03:17:14.775Z,9.00
2023-04-24T03:19:42.236Z,9.00
2023-04-24T03:22:10.364Z,9.00
2023-04-24T03:24:37.695Z,9.10
2023-04-24T03:27:05.066Z,9.00
2023-04-24T03:29:32.420Z,9.00
2023-04-24T03:31:59.826Z,9.00
2023-04-24T03:34:27.196Z,8.90
2023-04-24T03:36:54.567Z,8.90
2023-04-24T03:39:21.850Z,8.90
2023-04-24T03:41:49.138Z,9.00
2023-04-24T03:44:16.261Z,9.00
2023-04-24T03:46:43.508Z,9.00
2023-04-24T03:49:10.889Z,9.00
2023-04-24T03:51:38.156Z,9.00
2023-04-24T03:54:05.804Z,9.00
2023-04-24T03:56:33.051Z,9.00
2023-04-24T03:59:00.553Z,9.00
2023-04-24T04:01:29.333Z,9.00
2023-04-24T04:03:56.729Z,9.00
2023-04-24T04:06:24.129Z,9.00
2023-04-24T04:08:51.400Z,9.00
2023-04-24T04:11:18.700Z,8.90
2023-04-24T04:13:46.649Z,8.90
2023-04-24T04:16:13.986Z,8.90
2023-04-24T04:18:41.283Z,8.90
2023-04-24T04:21:08.710Z,8.90
2023-04-24T04:23:35.998Z,8.80
2023-04-24T04:26:04.329Z,8.80
2023-04-24T04:28:34.612Z,8.70
2023-04-24T04:31:02.002Z,8.70
2023-04-24T04:33:29.338Z,8.60
2023-04-24T04:35:59.765Z,8.60
2023-04-24T04:38:30.978Z,8.60
2023-04-24T04:40:58.556Z,8.70
2023-04-24T04:43:26.232Z,8.70
2023-04-24T04:45:53.581Z,8.70
2023-04-24T04:48:20.922Z,8.70
2023-04-24T04:50:49.242Z,8.60
2023-04-24T04:53:16.651Z,8.70
2023-04-24T04:55:43.968Z,8.70
2023-04-24T04:58:11.326Z,8.70
2023-04-24T05:00:38.707Z,8.70
2023-04-24T05:03:19.149Z,8.70
2023-04-24T05:05:47.015Z,8.80
2023-04-24T05:08:25.813Z,8.70
2023-04-24T05:10:55.039Z,8.80
2023-04-24T05:13:31.811Z,8.80
2023-04-24T05:16:06.197Z,8.80
2023-04-24T05:18:33.531Z,8.80
2023-04-24T05:21:01.074Z,8.80
2023-04-24T05:23:28.425Z,8.80
2023-04-24T05:25:55.786Z,8.80
2023-04-24T05:28:23.070Z,8.90
2023-04-24T05:30:50.752Z,9.00
2023-04-24T05:33:18.022Z,9.00
2023-04-24T05:35:48.331Z,9.00
2023-04-24T05:38:18.573Z,9.00
2023-04-24T05:40:46.298Z,8.90
2023-04-24T05:43:13.887Z,8.90
2023-04-24T05:45:41.218Z,8.80
2023-04-24T05:48:08.584Z,8.70
2023-04-24T05:50:37.184Z,8.80
2023-04-24T05:53:04.739Z,8.70
2023-04-24T05:55:32.240Z,8.80
2023-04-24T05:57:59.758Z,8.90
2023-04-24T06:00:27.958Z,8.90
2023-04-24T06:02:55.629Z,8.80
2023-04-24T06:05:23.530Z,8.80
2023-04-24T06:07:51.785Z,8.90
2023-04-24T06:10:19.121Z,8.80
2023-04-24T06:12:46.443Z,8.80
2023-04-24T06:15:14.066Z,8.80
2023-04-24T06:17:41.520Z,8.80
2023-04-24T06:20:09.277Z,8.80
2023-04-24T06:22:36.590Z,8.80
2023-04-24T06:25:03.860Z,8.80
2023-04-24T06:27:31.143Z,8.80
2023-04-24T06:29:58.458Z,8.70
2023-04-24T06:32:26.010Z,8.80
2023-04-24T06:34:53.758Z,8.90
2023-04-24T06:37:21.577Z,8.80
2023-04-24T06:39:48.931Z,8.70
2023-04-24T06:42:16.303Z,8.60
2023-04-24T06:44:43.923Z,8.70
2023-04-24T06:47:11.562Z,8.70
2023-04-24T06:49:39.192Z,8.80
2023-04-24T06:52:07.339Z,8.80
2023-04-24T06:54:34.998Z,8.90
2023-04-24T06:57:03.621Z,8.90
2023-04-24T06:59:31.510Z,8.90
2023-04-24T07:01:59.125Z,8.90
2023-04-24T07:04:26.841Z,8.90
2023-04-24T07:06:57.061Z,8.90
2023-04-24T07:09:26.308Z,9.00
2023-04-24T07:11:54.448Z,9.10
2023-04-24T07:14:21.769Z,9.20
2023-04-24T07:16:49.376Z,9.20
2023-04-24T07:19:16.752Z,9.20
2023-04-24T07:21:44.069Z,9.20
2023-04-24T07:24:12.630Z,9.20
2023-04-24T07:26:40.910Z,9.20
2023-04-24T07:29:08.904Z,9.20
2023-04-24T07:31:37.179Z,9.20
2023-04-24T07:34:04.562Z,9.30
2023-04-24T07:36:33.342Z,9.40
2023-04-24T07:39:00.985Z,9.40
2023-04-24T07:41:29.137Z,9.40
2023-04-24T07:43:56.633Z,9.40
2023-04-24T07:46:24.500Z,9.40
2023-04-24T07:49:05.373Z,9.40
2023-04-24T07:51:40.110Z,9.40
2023-04-24T07:54:07.361Z,9.40
2023-04-24T07:56:35.568Z,9.40
2023-04-24T07:59:02.935Z,9.50
2023-04-24T08:01:30.376Z,9.50
2023-04-24T08:03:58.080Z,9.50
2023-04-24T08:06:28.947Z,9.60
2023-04-24T08:08:56.344Z,9.60
2023-04-24T08:11:24.985Z,9.60
2023-04-24T08:13:52.319Z,9.60
2023-04-24T08:16:19.760Z,9.70
2023-04-24T08:18:47.208Z,9.80
2023-04-24T08:21:18.122Z,9.80
2023-04-24T08:23:46.535Z,9.90
2023-04-24T08:26:14.242Z,10.00
2023-04-24T08:28:41.550Z,10.20
2023-04-24T08:31:08.994Z,10.30
2023-04-24T08:33:36.390Z,10.30
2023-04-24T08:36:07.005Z,10.40
2023-04-24T08:38:34.795Z,10.40
2023-04-24T08:41:02.428Z,10.50
2023-04-24T08:43:29.821Z,10.60
2023-04-24T08:45:58.044Z,10.60
2023-04-24T08:48:31.283Z,10.60
2023-04-24T08:50:59.904Z,10.60
2023-04-24T08:53:27.302Z,10.60
2023-04-24T08:55:55.429Z,10.70
2023-04-24T08:58:23.283Z,10.70
2023-04-24T09:00:50.743Z,10.80
2023-04-24T09:03:18.344Z,10.90
2023-04-24T09:05:47.278Z,10.90
2023-04-24T09:08:15.040Z,11.00
2023-04-24T09:10:42.534Z,11.00
2023-04-24T09:13:11.185Z,10.90
2023-04-24T09:15:39.302Z,10.70
2023-04-24T09:18:06.769Z,10.70
2023-04-24T09:20:34.204Z,10.80
2023-04-24T09:23:01.497Z,10.80
2023-04-24T09:25:33.149Z,10.90
2023-04-24T09:28:04.382Z,10.90
2023-04-24T09:30:32.010Z,11.00
2023-04-24T09:33:15.677Z,11.00
2023-04-24T09:35:46.239Z,11.00
2023-04-24T09:38:13.485Z,11.20
2023-04-24T09:40:41.729Z,11.20
2023-04-24T09:43:12.204Z,11.20
2023-04-24T09:45:40.496Z,11.10
2023-04-24T09:48:11.359Z,11.10
2023-04-24T09:50:38.864Z,11.00
2023-04-24T09:53:09.743Z,10.90
2023-04-24T09:55:42.141Z,10.90
2023-04-24T09:58:09.474Z,10.90
2023-04-24T10:00:37.000Z,10.80
2023-04-24T10:03:05.028Z,10.70
2023-04-24T10:05:33.715Z,10.60
2023-04-24T10:08:04.948Z,10.60
2023-04-24T10:10:33.172Z,10.60
2023-04-24T10:13:01.651Z,10.50
2023-04-24T10:15:29.237Z,10.50
2023-04-24T10:17:58.572Z,10.40
2023-04-24T10:20:27.766Z,10.40
2023-04-24T10:22:55.172Z,10.50
2023-04-24T10:25:23.889Z,10.50
2023-04-24T10:27:51.942Z,10.50
2023-04-24T10:30:20.073Z,10.50
2023-04-24T10:32:47.459Z,10.50
2023-04-24T10:35:15.866Z,10.50
2023-04-24T10:37:45.156Z,10.40
2023-04-24T10:40:13.087Z,10.40
2023-04-24T10:42:43.773Z,10.40
2023-04-24T10:45:18.131Z,10.30
2023-04-24T10:48:07.117Z,10.30
2023-04-24T10:50:44.995Z,10.20
2023-04-24T10:53:19.424Z,10.20
2023-04-24T10:55:53.376Z,10.20
2023-04-24T10:58:24.385Z,10.10
2023-04-24T11:00:59.019Z,10.10
2023-04-24T11:03:26.891Z,10.20
2023-04-24T11:05:57.608Z,10.20
2023-04-24T11:08:26.929Z,10.30
2023-04-24T11:11:02.181Z,10.50
2023-04-24T11:13:49.748Z,10.60
2023-04-24T11:16:36.270Z,10.70
2023-04-24T11:19:05.398Z,10.80
2023-04-24T11:21:52.959Z,10.90
2023-04-24T11:24:29.974Z,10.90
2023-04-24T11:26:58.546Z,11.30
2023-04-24T11:29:47.654Z,11.70
2023-04-24T11:32:16.063Z,11.90
2023-04-24T11:34:46.304Z,12.20
2023-04-24T11:37:14.081Z,12.10
2023-04-24T11:39:41.489Z,12.20
2023-04-24T11:42:10.142Z,12.20
2023-04-24T11:44:40.890Z,12.10
2023-04-24T11:47:09.127Z,12.20
2023-04-24T11:49:39.792Z,12.20
2023-04-24T11:52:07.723Z,11.90
2023-04-24T11:54:35.065Z,11.80
2023-04-24T11:57:05.011Z,11.70
2023-04-24T11:59:36.389Z,11.70
2023-04-24T12:02:03.846Z,11.70
2023-04-24T12:04:39.716Z,11.70
2023-04-24T12:07:09.053Z,11.70
2023-04-24T12:09:43.773Z,11.80
2023-04-24T12:12:13.205Z,11.80
2023-04-24T12:14:50.979Z,11.80
2023-04-24T12:17:18.288Z,11.80
2023-04-24T12:19:46.309Z,11.80
2023-04-24T12:22:15.692Z,11.80
2023-04-24T12:24:58.229Z,12.10
2023-04-24T12:27:25.874Z,12.30
2023-04-24T12:29:54.497Z,12.40
2023-04-24T12:32:21.843Z,12.50
2023-04-24T12:34:50.506Z,12.60
2023-04-24T12:37:18.302Z,12.60
2023-04-24T12:39:58.670Z,13.00
2023-04-24T12:42:30.003Z,13.50
2023-04-24T12:44:58.949Z,14.10
2023-04-24T12:47:26.489Z,14.80
2023-04-24T12:49:54.100Z,14.90
2023-04-24T12:52:21.883Z,15.20
2023-04-24T12:54:49.238Z,14.70
2023-04-24T12:57:16.400Z,14.50
2023-04-24T12:59:43.724Z,14.90
2023-04-24T13:02:12.108Z,15.00
2023-04-24T13:04:39.425Z,15.20
2023-04-24T13:07:06.934Z,15.50
2023-04-24T13:09:35.741Z,15.80
2023-04-24T13:12:03.339Z,16.00
2023-04-24T13:14:31.508Z,15.90
2023-04-24T13:16:58.908Z,15.60
2023-04-24T13:19:31.196Z,15.30
2023-04-24T13:22:00.212Z,14.90
2023-04-24T13:24:27.534Z,14.40
2023-04-24T13:26:54.739Z,14.40
2023-04-24T13:29:21.912Z,14.50
2023-04-24T13:31:51.052Z,14.80
2023-04-24T13:34:19.200Z,15.50
2023-04-24T13:36:47.041Z,15.70
2023-04-24T13:39:14.384Z,16.00
2023-04-24T13:41:41.708Z,16.70
2023-04-24T13:44:08.987Z,17.00
2023-04-24T13:46:36.683Z,16.90
2023-04-24T13:49:04.741Z,17.00
2023-04-24T13:51:32.067Z,16.70
2023-04-24T13:53:59.418Z,16.30
2023-04-24T13:56:26.933Z,16.10
2023-04-24T13:58:55.659Z,15.70
2023-04-24T14:01:25.815Z,14.90
2023-04-24T14:03:53.787Z,14.40
2023-04-24T14:06:21.488Z,14.20
2023-04-24T14:08:48.828Z,14.00
2023-04-24T14:11:16.451Z,13.70
2023-04-24T14:13:44.767Z,13.80
2023-04-24T14:16:12.630Z,13.70
2023-04-24T14:18:39.981Z,14.00
2023-04-24T14:21:07.521Z,14.40
2023-04-24T14:23:34.822Z,14.60
2023-04-24T14:26:02.100Z,15.00
2023-04-24T14:28:29.515Z,15.30
2023-04-24T14:30:56.846Z,15.40
2023-04-24T14:33:24.246Z,15.10
2023-04-24T14:35:51.600Z,15.10
2023-04-24T14:38:18.831Z,14.90
2023-04-24T14:41:05.487Z,14.50
2023-04-24T14:43:33.750Z,14.30
2023-04-24T14:46:01.302Z,14.10
2023-04-24T14:48:28.571Z,13.90
2023-04-24T14:50:55.994Z,13.70
2023-04-24T14:53:23.288Z,13.40
2023-04-24T14:55:50.792Z,13.40
2023-04-24T14:58:18.143Z,13.30
2023-04-24T15:00:45.594Z,13.20
2023-04-24T15:03:13.194Z,13.30
2023-04-24T15:05:41.084Z,13.30
2023-04-24T15:08:08.793Z,13.20
2023-04-24T15:10:36.450Z,13.20
2023-04-24T15:13:03.828Z,13.10
2023-04-24T15:15:31.131Z,13.00
2023-04-24T15:17:58.499Z,12.90
2023-04-24T15:20:25.818Z,12.80
2023-04-24T15:22:53.248Z,12.80
2023-04-24T15:25:20.656Z,12.80
2023-04-24T15:27:48.081Z,12.80
2023-04-24T15:30:15.608Z,12.70
2023-04-24T15:32:44.505Z,12.60
2023-04-24T15:35:12.178Z,12.40
2023-04-24T15:37:41.166Z,12.30
2023-04-24T15:40:14.435Z,12.30
2023-04-24T15:42:42.777Z,12.20
2023-04-24T15:45:10.803Z,11.90
2023-04-24T15:47:38.629Z,11.50
2023-04-24T15:50:06.351Z,11.10
2023-04-24T15:52:33.658Z,10.70
2023-04-24T15:55:01.182Z,10.50
2023-04-24T15:57:28.505Z,10.30
2023-04-24T15:59:55.940Z,10.10
2023-04-24T16:02:23.446Z,9.80
2023-04-24T16:04:51.306Z,9.50
2023-04-24T16:07:18.843Z,9.20
2023-04-24T16:09:46.334Z,9.20
2023-04-24T16:12:14.727Z,9.30
2023-04-24T16:14:42.211Z,9.20
2023-04-24T16:17:09.591Z,9.10
2023-04-24T16:19:36.976Z,8.90
2023-04-24T16:22:04.322Z,9.00
2023-04-24T16:24:31.709Z,9.10
2023-04-24T16:26:59.052Z,9.20
2023-04-24T16:29:26.861Z,9.20
2023-04-24T16:31:55.093Z,9.30
2023-04-24T16:34:22.629Z,9.80
2023-04-24T16:36:50.663Z,9.10
2023-04-24T16:39:18.220Z,9.10
2023-04-24T16:41:45.655Z,9.20
2023-04-24T16:44:13.748Z,9.20
2023-04-24T16:46:41.101Z,9.20
2023-04-24T16:49:08.452Z,9.20
2023-04-24T16:51:36.155Z,9.20
2023-04-24T16:54:03.553Z,9.00
2023-04-24T16:56:30.888Z,8.90
2023-04-24T16:58:58.573Z,8.80
2023-04-24T17:01:26.023Z,8.80
2023-04-24T17:03:53.568Z,8.80
2023-04-24T17:06:20.762Z,8.70
2023-04-24T17:08:48.232Z,8.70
2023-04-24T17:11:15.615Z,8.70
2023-04-24T17:13:43.035Z,8.80
2023-04-24T17:16:10.962Z,8.80
2023-04-24T17:18:38.290Z,8.80
2023-04-24T17:21:05.648Z,8.80
2023-04-24T17:23:32.992Z,8.80
2023-04-24T17:26:00.304Z,8.70
2023-04-24T17:28:29.335Z,8.60
2023-04-24T17:30:58.469Z,8.50
2023-04-24T17:33:26.443Z,8.40
2023-04-24T17:35:54.101Z,8.40
2023-04-24T17:38:21.605Z,8.40
2023-04-24T17:40:52.850Z,8.30
2023-04-24T17:43:20.658Z,8.30
2023-04-24T17:45:48.690Z,8.20
2023-04-24T17:48:16.180Z,8.20
2023-04-24T17:50:43.831Z,8.20
2023-04-24T17:53:11.192Z,8.30
2023-04-24T17:55:39.530Z,8.30
2023-04-24T17:58:06.808Z,8.20
2023-04-24T18:00:34.479Z,8.30
2023-04-24T18:03:02.142Z,8.30
2023-04-24T18:05:30.181Z,8.20
2023-04-24T18:07:58.061Z,8.20
2023-04-24T18:10:26.580Z,8.10
2023-04-24T18:12:53.946Z,8.10
2023-04-24T18:15:21.476Z,8.10
2023-04-24T18:17:48.959Z,8.60
2023-04-24T18:20:16.997Z,7.70
2023-04-24T18:22:44.755Z,7.70
2023-04-24T18:25:12.302Z,7.70
2023-04-24T18:27:40.221Z,7.70
2023-04-24T18:30:08.601Z,7.60
2023-04-24T18:32:36.332Z,7.60
2023-04-24T18:35:04.086Z,7.50
2023-04-24T18:37:33.537Z,7.60
2023-04-24T18:40:00.937Z,7.50
2023-04-24T18:42:28.337Z,7.50
2023-04-24T18:45:01.314Z,7.40
2023-04-24T18:47:29.105Z,7.40
2023-04-24T18:49:56.687Z,7.40
2023-04-24T18:52:24.321Z,7.30
2023-04-24T18:54:52.998Z,7.20
2023-04-24T18:57:21.988Z,7.20
2023-04-24T18:59:49.819Z,7.20
2023-04-24T19:02:17.248Z,7.30
2023-04-24T19:04:45.282Z,7.20
2023-04-24T19:07:12.703Z,7.20
2023-04-24T19:09:40.552Z,7.20
2023-04-24T19:12:08.362Z,7.20
2023-04-24T19:14:36.325Z,7.20
2023-04-24T19:17:03.660Z,7.20
2023-04-24T19:19:32.665Z,7.20
2023-04-24T19:21:59.918Z,7.20
2023-04-24T19:24:29.114Z,7.20
2023-04-24T19:26:56.774Z,7.10
2023-04-24T19:29:25.338Z,7.20
2023-04-24T19:31:54.691Z,7.20
2023-04-24T19:34:22.376Z,7.20
2023-04-24T19:36:50.152Z,7.30
2023-04-24T19:39:17.913Z,7.30
2023-04-24T19:41:45.708Z,7.30
2023-04-24T19:44:14.756Z,7.30
2023-04-24T19:46:42.081Z,7.30
2023-04-24T19:49:09.642Z,7.50
2023-04-24T19:51:37.806Z,7.60
2023-04-24T19:54:06.525Z,7.50
2023-04-24T19:56:34.777Z,7.60
2023-04-24T19:59:03.271Z,7.60
2023-04-24T20:01:31.059Z,7.60
2023-04-24T20:03:59.147Z,7.50
2023-04-24T20:06:30.320Z,7.50
2023-04-24T20:08:59.184Z,7.50
2023-04-24T20:11:26.695Z,7.40
2023-04-24T20:13:56.925Z,7.30
2023-04-24T20:16:24.289Z,7.40
2023-04-24T20:18:51.695Z,7.30
2023-04-24T20:21:19.450Z,7.30
2023-04-24T20:23:49.321Z,7.20
2023-04-24T20:26:19.846Z,7.10
2023-04-24T20:28:47.735Z,7.00
2023-04-24T20:31:15.656Z,7.00
2023-04-24T20:33:44.892Z,7.00
2023-04-24T20:36:12.172Z,6.90
2023-04-24T20:38:39.433Z,6.90
2023-04-24T20:41:09.425Z,7.00
2023-04-24T20:43:37.590Z,7.10
2023-04-24T20:46:06.047Z,7.00
2023-04-24T20:48:34.172Z,6.90
2023-04-24T20:51:05.676Z,6.90
2023-04-24T20:53:39.702Z,6.80
2023-04-24T20:56:08.880Z,6.80
2023-04-24T20:58:36.821Z,6.80
2023-04-24T21:01:04.843Z,6.80
2023-04-24T21:03:32.677Z,6.80
2023-04-24T21:06:03.286Z,6.80
2023-04-24T21:08:30.789Z,6.90
2023-04-24T21:10:58.205Z,6.90
2023-04-24T21:13:26.314Z,6.90
2023-04-24T21:15:54.115Z,6.90
2023-04-24T21:18:21.719Z,6.90
2023-04-24T21:20:49.950Z,6.90
2023-04-24T21:23:17.297Z,7.00
2023-04-24T21:25:44.711Z,7.00
2023-04-24T21:28:12.488Z,7.00
2023-04-24T21:30:39.849Z,7.00
2023-04-24T21:33:07.524Z,7.00
2023-04-24T21:35:35.336Z,6.90
2023-04-24T21:38:02.900Z,7.00
2023-04-24T21:40:30.400Z,6.90
2023-04-24T21:42:57.573Z,6.90
2023-04-24T21:45:25.113Z,6.90
2023-04-24T21:47:52.652Z,6.90
2023-04-24T21:50:20.659Z,6.90
2023-04-24T21:52:49.874Z,6.90
2023-04-24T21:55:17.602Z,6.90
2023-04-24T21:57:45.817Z,6.80
2023-04-24T22:00:13.758Z,6.80
2023-04-24T22:02:43.242Z,6.80
2023-04-24T22:05:15.908Z,6.70
2023-04-24T22:07:49.736Z,6.70
2023-04-24T22:10:18.022Z,6.70
2023-04-24T22:12:45.230Z,6.70
2023-04-24T22:15:12.438Z,6.70
2023-04-24T22:17:39.811Z,6.60
2023-04-24T22:20:07.471Z,6.60
2023-04-24T22:22:35.192Z,6.70
2023-04-24T22:25:02.530Z,6.60
2023-04-24T22:27:32.230Z,6.60
2023-04-24T22:30:00.233Z,6.70
2023-04-24T22:32:27.601Z,6.60
2023-04-24T22:34:54.876Z,6.60
2023-04-24T22:37:22.352Z,6.60
2023-04-24T22:39:49.626Z,6.60
2023-04-24T22:42:16.938Z,6.60
2023-04-24T22:44:44.223Z,6.60
2023-04-24T22:47:11.514Z,6.50
2023-04-24T22:49:39.820Z,6.50
2023-04-24T22:52:08.193Z,6.60
2023-04-24T22:54:35.892Z,6.60
2023-04-24T22:57:04.039Z,6.60
2023-04-24T22:59:31.372Z,6.60
2023-04-24T23:02:01.774Z,6.50
2023-04-24T23:04:29.889Z,6.50
2023-04-24T23:06:57.265Z,6.50
2023-04-24T23:09:24.501Z,6.50
2023-04-24T23:11:51.908Z,6.50
2023-04-24T23:14:19.413Z,6.50
2023-04-24T23:16:46.691Z,6.50
2023-04-24T23:19:14.024Z,6.40
2023-04-24T23:21:41.453Z,6.40
2023-04-24T23:24:08.833Z,6.50
2023-04-24T23:26:37.280Z,6.50
2023-04-24T23:29:04.519Z,6.40
2023-04-24T23:31:31.867Z,6.40
2023-04-24T23:34:00.237Z,6.40
2023-04-24T23:36:27.614Z,6.40
2023-04-24T23:39:02.685Z,6.30
2023-04-24T23:41:30.013Z,6.30
2023-04-24T23:43:57.361Z,6.30
2023-04-24T23:46:24.870Z,6.30
2023-04-24T23:48:52.183Z,6.20
2023-04-24T23:51:19.486Z,6.20
2023-04-24T23:53:46.882Z,6.20
2023-04-24T23:56:14.339Z,6.30
2023-04-24T23:58:41.608Z,6.20
